This is the latest recevied weather packets stored in our database for station/object N6XE-13. If no packets are shown the sender has not sent any weather packets the latest 10 day(s).
| Time | Temp. | Humidity | Pressure | Rain* | Wind** | Luminosity | Snow |
|---|---|---|---|---|---|---|---|
| 1788138005 | 90° F | 36% | 759.2 mmHg | 0 in | - | - | - |
| 1788136205 | 91° F | 35% | 759.4 mmHg | 0 in | - | - | - |
| 1788134406 | 92° F | 33% | 759.4 mmHg | 0 in | - | - | - |
| 1788132605 | 91° F | 34% | 759.6 mmHg | 0 in | - | - | - |
| 1788130805 | 92° F | 34% | 759.8 mmHg | 0 in | - | - | - |
| 1788129005 | 90° F | 36% | 760.1 mmHg | 0 in | - | - | - |
| 1788127205 | 90° F | 36% | 760.5 mmHg | 0 in | - | - | - |
| 1788125406 | 88° F | 37% | 760.9 mmHg | 0 in | - | - | - |
| 1788123606 | 87° F | 38% | 761 mmHg | 0 in | - | - | - |
| 1788121806 | 85° F | 41% | 761.2 mmHg | 0 in | - | - | - |
| 1788120006 | 84° F | 42% | 761.5 mmHg | 0 in | - | - | - |
| 1788118206 | 82° F | 44% | 761.6 mmHg | 0 in | - | - | - |
| 1788114606 | 78° F | 47% | 762 mmHg | 0 in | - | - | - |
| 1788112806 | 77° F | 48% | 762.1 mmHg | 0 in | - | - | - |
| 1788111006 | 75° F | 50% | 762.1 mmHg | 0 in | - | - | - |
| 1788109205 | 73° F | 54% | 762 mmHg | 0 in | - | - | - |
| 1788107405 | 70° F | 56% | 762.1 mmHg | 0 in | - | - | - |
| 1788105605 | 68° F | 60% | 762.1 mmHg | 0 in | - | - | - |
| 1788103805 | 66° F | 64% | 762.1 mmHg | 0 in | - | - | - |
| 1788102005 | 63° F | 72% | 761.8 mmHg | 0 in | - | - | - |
| 1788100205 | 60° F | 78% | 761.7 mmHg | 0 in | - | - | - |
| 1788098405 | 58° F | 81% | 761.4 mmHg | 0 in | - | - | - |
| 1788096605 | 58° F | 80% | 761.2 mmHg | 0 in | - | - | - |
| 1788094805 | 59° F | 79% | 761.1 mmHg | 0 in | - | - | - |
| 1788093006 | 59° F | 78% | 760.9 mmHg | 0 in | - | - | - |
* Rain latest hour (hover to see other rain measurements)
** Current wind speed in m/s (hover to see current wind gust speed)